Time;durP1;ratioP1;P1;durP2;ratioP2;P2;SDS_P1;SDS_P2;PMS_P1;PMS_P2;Temp;Humidity;BMP_temperature;BMP_pressure;BME280_temperature;BME280_humidity;BME280_pressure;Samples;Min_cycle;Max_cycle;Signal;HPM_P1;HPM_P2
2022/12/13 00:01:51;;;;;;;97.93;52.92;;;-4.30;99.90;;;;;;5034472;28;20037;-72
2022/12/13 00:04:21;;;;;;;96.97;54.47;;;-4.30;99.90;;;;;;5034658;28;20354;-72
2022/12/13 00:06:48;;;;;;;92.63;52.15;;;-4.30;99.90;;;;;;5034436;28;20076;-72
2022/12/13 00:09:16;;;;;;;83.13;50.58;;;-4.30;99.90;;;;;;5034091;28;20075;-72
2022/12/13 00:11:42;;;;;;;90.13;53.72;;;-4.30;99.90;;;;;;5016878;28;20045;-72
2022/12/13 00:14:08;;;;;;;92.68;52.10;;;-4.30;99.90;;;;;;5034181;28;20034;-72
2022/12/13 00:16:37;;;;;;;97.82;53.03;;;-4.30;99.90;;;;;;5034787;28;20048;-72
2022/12/13 00:19:02;;;;;;;83.63;49.60;;;-4.30;99.90;;;;;;5034135;28;20473;-73
2022/12/13 00:21:30;;;;;;;87.78;51.35;;;-4.30;99.90;;;;;;5037532;28;20042;-73
2022/12/13 00:23:57;;;;;;;99.28;53.58;;;-4.30;99.90;;;;;;5004325;28;20084;-73
2022/12/13 00:26:25;;;;;;;92.32;51.20;;;-4.30;99.90;;;;;;5037954;28;20060;-72
2022/12/13 00:28:52;;;;;;;88.80;52.17;;;-4.30;99.90;;;;;;5037571;28;20330;-73
2022/12/13 00:31:20;;;;;;;96.05;53.92;;;-4.30;99.90;;;;;;5037620;28;20090;-73
2022/12/13 00:33:46;;;;;;;81.00;49.00;;;-4.30;99.90;;;;;;5038003;28;20041;-73
2022/12/13 00:36:15;;;;;;;87.65;51.03;;;-4.30;99.90;;;;;;5020731;28;20041;-73
2022/12/13 00:38:40;;;;;;;94.50;51.42;;;-4.30;99.90;;;;;;5003967;28;20389;-73
2022/12/13 00:41:19;;;;;;;84.28;48.53;;;-4.40;99.90;;;;;;5019843;28;20045;-73
2022/12/13 00:43:45;;;;;;;81.65;48.58;;;-4.40;99.90;;;;;;5037616;28;20048;-72
2022/12/13 00:46:20;;;;;;;93.72;53.15;;;-4.40;99.90;;;;;;5037345;28;20037;-73
2022/12/13 00:48:57;;;;;;;87.07;48.55;;;-4.30;99.90;;;;;;5037562;28;20037;-73
2022/12/13 00:51:24;;;;;;;81.82;48.13;;;-4.40;99.90;;;;;;5036810;28;20033;-73
2022/12/13 00:53:50;;;;;;;80.40;47.08;;;-4.30;99.90;;;;;;5020233;28;20049;-73
2022/12/13 00:56:20;;;;;;;81.35;47.40;;;-4.40;99.90;;;;;;5020157;28;20038;-73
2022/12/13 00:58:49;;;;;;;83.65;48.13;;;-4.40;99.90;;;;;;5037355;28;20053;-73
2022/12/13 01:01:16;;;;;;;84.78;48.08;;;-4.40;99.90;;;;;;5037547;28;20453;-73
2022/12/13 01:03:42;;;;;;;83.95;49.25;;;-4.40;99.90;;;;;;5036923;28;20045;-72
2022/12/13 01:06:15;;;;;;;84.13;47.47;;;-4.40;99.90;;;;;;5037075;28;20103;-73
2022/12/13 01:08:44;;;;;;;85.63;49.60;;;-4.40;99.90;;;;;;5020042;28;20110;-73
2022/12/13 01:11:11;;;;;;;83.85;48.38;;;-4.40;99.90;;;;;;5037182;28;20405;-73
2022/12/13 01:13:37;;;;;;;86.53;49.40;;;-4.40;99.90;;;;;;5037131;28;20041;-72
2022/12/13 01:16:07;;;;;;;84.40;47.88;;;-4.50;99.90;;;;;;5037036;28;20037;-72
2022/12/13 01:18:34;;;;;;;80.40;47.90;;;-4.40;99.90;;;;;;5037170;28;20037;-72
2022/12/13 01:21:02;;;;;;;79.07;48.55;;;-4.40;99.90;;;;;;5036713;28;20076;-72
2022/12/13 01:23:28;;;;;;;89.38;52.33;;;-4.40;99.90;;;;;;5036881;28;20087;-72
2022/12/13 01:25:54;;;;;;;86.82;50.67;;;-4.50;99.90;;;;;;5036802;28;20120;-73
2022/12/13 01:28:20;;;;;;;86.88;50.47;;;-4.50;99.90;;;;;;5036445;28;20129;-72
2022/12/13 01:31:00;;;;;;;80.63;47.40;;;-4.50;99.90;;;;;;5036885;28;20045;-72
2022/12/13 01:33:28;;;;;;;87.80;48.75;;;-4.50;99.90;;;;;;5036525;28;20339;-72
2022/12/13 01:35:53;;;;;;;89.10;50.50;;;-4.50;99.90;;;;;;5036317;28;20045;-72
2022/12/13 01:38:20;;;;;;;87.03;48.65;;;-4.50;99.90;;;;;;5036643;28;20083;-72
2022/12/13 01:40:56;;;;;;;84.60;48.90;;;-4.50;99.90;;;;;;5036717;28;20033;-72
2022/12/13 01:43:25;;;;;;;72.57;44.67;;;-4.50;99.90;;;;;;5019416;28;20196;-72
2022/12/13 01:45:51;;;;;;;79.78;46.92;;;-4.60;99.90;;;;;;5036560;28;20183;-72
2022/12/13 01:48:23;;;;;;;83.53;48.63;;;-4.60;99.90;;;;;;5036349;28;20120;-72
2022/12/13 01:50:52;;;;;;;77.28;46.17;;;-4.60;99.90;;;;;;5036287;28;20053;-72
2022/12/13 01:53:21;;;;;;;77.65;46.53;;;-4.60;99.90;;;;;;5036661;28;20369;-72
2022/12/13 01:55:52;;;;;;;73.20;44.65;;;-4.60;99.90;;;;;;5036307;28;20437;-73
2022/12/13 01:58:19;;;;;;;71.38;44.38;;;-4.60;99.90;;;;;;5036724;28;20128;-72
2022/12/13 02:00:45;;;;;;;84.40;48.50;;;-4.60;99.90;;;;;;5035813;28;20064;-72
2022/12/13 02:03:12;;;;;;;77.57;48.72;;;-4.70;99.90;;;;;;5036278;28;20060;-72
2022/12/13 02:05:43;;;;;;;82.18;48.15;;;-4.70;99.90;;;;;;5035866;28;20069;-73
2022/12/13 02:08:13;;;;;;;80.22;47.47;;;-4.70;99.90;;;;;;5036273;28;20056;-73
2022/12/13 02:10:40;;;;;;;78.30;46.17;;;-4.70;99.90;;;;;;5035983;28;20049;-73
2022/12/13 02:13:06;;;;;;;82.60;49.47;;;-4.70;99.90;;;;;;5035648;28;20473;-73
2022/12/13 02:15:45;;;;;;;78.88;47.20;;;-4.70;99.90;;;;;;5018411;28;20030;-73
2022/12/13 02:18:34;;;;;;;73.80;45.08;;;-4.70;99.90;;;;;;5036147;28;20052;-73
2022/12/13 02:21:02;;;;;;;77.20;45.70;;;-4.70;99.90;;;;;;5035622;28;20033;-73
2022/12/13 02:23:56;;;;;;;78.85;45.88;;;-4.70;99.90;;;;;;5036550;28;20041;-73
2022/12/13 02:26:59;;;;;;;75.82;44.90;;;-4.70;99.90;;;;;;5018447;28;20042;-73
2022/12/13 02:29:33;;;;;;;71.85;45.20;;;-4.80;99.90;;;;;;5035895;28;20037;-73
2022/12/13 02:32:15;;;;;;;75.30;45.90;;;-4.80;99.90;;;;;;5035978;28;20402;-72
2022/12/13 02:34:50;;;;;;;71.22;44.13;;;-4.80;99.90;;;;;;5035857;28;20110;-73
2022/12/13 02:37:29;;;;;;;79.68;48.38;;;-4.80;99.90;;;;;;5035854;28;20056;-73
2022/12/13 02:40:22;;;;;;;68.05;44.25;;;-4.80;99.90;;;;;;5035213;28;20442;-73
2022/12/13 02:42:51;;;;;;;72.70;45.05;;;-4.80;99.90;;;;;;5017999;28;20049;-72
2022/12/13 02:45:22;;;;;;;76.88;44.10;;;-4.90;99.90;;;;;;5035733;28;20045;-72
2022/12/13 02:47:53;;;;;;;68.90;43.42;;;-4.80;99.90;;;;;;5036118;28;20067;-72
2022/12/13 02:50:20;;;;;;;78.50;45.97;;;-4.90;99.90;;;;;;5034837;28;20042;-72
2022/12/13 02:52:47;;;;;;;75.22;45.38;;;-4.90;99.90;;;;;;5034727;28;20121;-72
2022/12/13 02:55:15;;;;;;;69.15;44.45;;;-4.90;99.90;;;;;;5034928;28;20025;-72
2022/12/13 02:57:43;;;;;;;74.32;43.83;;;-4.90;99.90;;;;;;5034611;28;20068;-72
2022/12/13 03:00:38;;;;;;;75.13;44.53;;;-4.90;99.90;;;;;;5001846;28;20374;-73
2022/12/13 03:03:18;;;;;;;71.60;43.95;;;-4.90;99.90;;;;;;5017898;28;20132;-72
2022/12/13 03:08:49;;;;;;;69.80;42.78;;;-5.00;99.90;;;;;;5035058;28;20053;-73
2022/12/13 03:11:20;;;;;;;71.45;43.78;;;-5.00;99.90;;;;;;5035101;28;20041;-72
2022/12/13 03:13:46;;;;;;;65.68;43.25;;;-4.90;99.90;;;;;;5034942;28;20034;-72
2022/12/13 03:16:36;;;;;;;71.38;43.95;;;-5.00;99.90;;;;;;5017988;28;20037;-73
2022/12/13 03:19:06;;;;;;;77.05;46.80;;;-5.00;99.90;;;;;;5017518;28;20069;-73
2022/12/13 03:21:39;;;;;;;73.40;44.42;;;-5.00;99.90;;;;;;5017432;28;20458;-73
2022/12/13 03:24:05;;;;;;;76.85;47.88;;;-5.00;99.90;;;;;;5034740;28;20323;-73
2022/12/13 03:26:32;;;;;;;74.93;46.25;;;-5.00;99.90;;;;;;5034612;28;20072;-72
2022/12/13 03:28:57;;;;;;;66.82;43.10;;;-5.00;99.90;;;;;;5034916;28;20055;-73
2022/12/13 03:31:23;;;;;;;65.07;44.03;;;-5.00;99.90;;;;;;5035087;28;20341;-72
2022/12/13 03:33:49;;;;;;;76.63;44.28;;;-5.00;99.90;;;;;;5035029;28;20049;-72
2022/12/13 03:36:19;;;;;;;67.90;41.83;;;-5.00;99.90;;;;;;5035127;28;20107;-72
2022/12/13 03:38:51;;;;;;;70.35;44.83;;;-5.00;99.90;;;;;;5017235;28;20072;-73
2022/12/13 03:41:20;;;;;;;79.78;46.78;;;-5.00;99.90;;;;;;5017409;28;20045;-73
2022/12/13 03:43:46;;;;;;;72.10;45.35;;;-5.00;99.90;;;;;;5034764;28;20045;-73
2022/12/13 03:46:11;;;;;;;75.85;46.80;;;-5.00;99.90;;;;;;5017237;28;20053;-73
2022/12/13 03:48:37;;;;;;;70.78;43.28;;;-5.00;99.90;;;;;;5017141;28;20041;-73
2022/12/13 03:51:03;;;;;;;61.83;41.42;;;-5.00;99.90;;;;;;5034869;28;20037;-73
2022/12/13 03:53:30;;;;;;;73.10;44.85;;;-5.00;99.90;;;;;;5016739;28;20057;-73
2022/12/13 03:55:55;;;;;;;73.07;44.83;;;-5.10;99.90;;;;;;5019636;28;20166;-72
2022/12/13 03:58:21;;;;;;;71.72;44.20;;;-5.10;99.90;;;;;;5038776;28;20485;-74
2022/12/13 04:00:47;;;;;;;66.80;42.42;;;-4.60;99.90;;;;;;5004569;28;20042;-73
2022/12/13 04:03:13;;;;;;;68.03;42.58;;;-5.10;99.90;;;;;;5038406;28;20124;-73
2022/12/13 04:05:39;;;;;;;66.57;43.35;;;-5.10;99.90;;;;;;5020747;28;20046;-73
2022/12/13 04:08:05;;;;;;;66.57;42.67;;;-5.10;99.90;;;;;;5037767;28;20072;-73
2022/12/13 04:10:31;;;;;;;66.55;43.13;;;-4.70;99.90;;;;;;5020528;28;20053;-73
2022/12/13 04:15:47;;;;;;;65.40;41.28;;;-5.20;99.90;;;;;;5038141;28;20041;-73
2022/12/13 04:18:15;;;;;;;61.25;41.03;;;-5.20;99.90;;;;;;5038471;28;20045;-73
2022/12/13 04:20:41;;;;;;;61.35;39.55;;;-5.20;99.90;;;;;;5020630;28;20123;-73
2022/12/13 04:23:06;;;;;;;65.47;43.08;;;-5.20;99.90;;;;;;5037825;28;20111;-73
2022/12/13 04:25:32;;;;;;;64.03;41.65;;;-5.20;99.90;;;;;;5037938;28;20450;-73
2022/12/13 04:27:58;;;;;;;67.88;42.47;;;-5.20;99.90;;;;;;5037935;28;20037;-73
2022/12/13 04:30:26;;;;;;;68.05;41.50;;;-5.20;99.90;;;;;;5037998;28;20057;-74
2022/12/13 04:32:52;;;;;;;64.95;42.72;;;-5.20;99.90;;;;;;5037957;28;20045;-72
2022/12/13 04:35:17;;;;;;;68.32;44.92;;;-5.20;99.90;;;;;;5037618;28;20037;-73
2022/12/13 04:37:43;;;;;;;63.30;42.13;;;-5.20;99.90;;;;;;5037401;28;20084;-73
2022/12/13 04:40:09;;;;;;;65.57;41.78;;;-5.20;99.90;;;;;;5019644;28;20389;-73
2022/12/13 04:42:35;;;;;;;63.65;42.28;;;-5.30;99.90;;;;;;5037815;28;20116;-73
2022/12/13 04:45:01;;;;;;;64.78;42.83;;;-5.30;99.90;;;;;;5037886;28;20085;-73
2022/12/13 04:47:26;;;;;;;65.40;43.08;;;-5.30;99.90;;;;;;5020339;28;20053;-73
2022/12/13 04:49:52;;;;;;;67.15;44.13;;;-5.30;99.90;;;;;;5037470;28;20036;-73
2022/12/13 04:52:18;;;;;;;67.75;44.90;;;-5.20;99.90;;;;;;5037426;28;20071;-73
2022/12/13 04:54:44;;;;;;;63.50;42.72;;;-5.20;99.90;;;;;;5019762;28;20038;-73
2022/12/13 04:57:15;;;;;;;67.68;44.88;;;-5.30;99.90;;;;;;5037174;28;20046;-72
2022/12/13 04:59:45;;;;;;;77.22;46.25;;;-5.20;99.90;;;;;;5015753;28;20132;-73
2022/12/13 05:02:11;;;;;;;69.43;44.13;;;-5.30;99.90;;;;;;5015623;28;20054;-73
2022/12/13 05:04:39;;;;;;;66.93;44.75;;;-5.30;99.90;;;;;;5015634;28;20115;-72
2022/12/13 05:07:05;;;;;;;60.83;41.75;;;-5.30;99.90;;;;;;4996920;28;20049;-72
2022/12/13 05:09:31;;;;;;;65.07;42.75;;;-5.30;99.90;;;;;;5015414;28;20161;-72
2022/12/13 05:11:57;;;;;;;64.20;44.83;;;-5.30;99.90;;;;;;5015167;28;20242;-71
2022/12/13 05:14:22;;;;;;;69.00;46.53;;;-5.30;99.90;;;;;;5015144;28;20085;-73
2022/12/13 05:16:48;;;;;;;72.97;45.45;;;-5.30;99.90;;;;;;4999682;28;20085;-72
2022/12/13 05:19:13;;;;;;;71.65;46.25;;;-5.30;99.90;;;;;;5014923;28;20487;-73
2022/12/13 05:21:39;;;;;;;73.07;45.00;;;-5.30;99.90;;;;;;4998909;28;20049;-73
2022/12/13 05:24:05;;;;;;;65.72;44.97;;;-5.30;99.90;;;;;;5014929;28;20046;-71
2022/12/13 05:26:31;;;;;;;64.85;43.47;;;-5.30;99.90;;;;;;4998596;28;20052;-72
2022/12/13 05:28:58;;;;;;;65.78;44.35;;;-5.30;99.90;;;;;;5014709;28;20038;-73
2022/12/13 05:31:29;;;;;;;64.00;43.95;;;-5.30;99.90;;;;;;5032510;28;20049;-73
2022/12/13 05:33:54;;;;;;;73.38;46.00;;;-5.50;99.90;;;;;;5036654;28;20060;-72
2022/12/13 05:36:24;;;;;;;63.92;42.08;;;-5.40;99.90;;;;;;5036530;28;20041;-72
2022/12/13 05:38:50;;;;;;;65.50;42.08;;;-5.40;99.90;;;;;;5036587;28;20049;-72
2022/12/13 05:41:19;;;;;;;65.40;43.10;;;-5.40;99.90;;;;;;5018712;28;20048;-72
2022/12/13 05:43:45;;;;;;;63.33;41.85;;;-5.40;99.90;;;;;;5036352;28;20049;-73
2022/12/13 05:46:13;;;;;;;72.78;45.55;;;-5.40;99.90;;;;;;5019483;28;20048;-72
2022/12/13 05:48:40;;;;;;;67.22;44.80;;;-5.40;99.90;;;;;;5036457;28;20350;-72
2022/12/13 05:51:06;;;;;;;66.53;44.45;;;-5.40;99.90;;;;;;5036460;28;20033;-73
2022/12/13 05:53:32;;;;;;;69.15;45.08;;;-5.40;99.90;;;;;;5036578;28;20079;-72
2022/12/13 05:56:01;;;;;;;70.13;43.65;;;-5.40;99.90;;;;;;5036417;28;20466;-72
2022/12/13 05:58:27;;;;;;;60.78;42.00;;;-5.40;99.90;;;;;;5035933;28;20108;-72
2022/12/13 06:00:53;;;;;;;70.85;45.42;;;-5.40;99.90;;;;;;5036224;28;20060;-72
2022/12/13 06:03:19;;;;;;;78.50;46.53;;;-5.40;99.90;;;;;;5036083;28;20041;-73
2022/12/13 06:05:45;;;;;;;72.57;45.63;;;-5.40;99.90;;;;;;5036199;28;20038;-71
2022/12/13 06:08:10;;;;;;;69.95;43.42;;;-5.40;99.90;;;;;;5035982;28;20037;-73
2022/12/13 06:10:36;;;;;;;68.38;45.00;;;-5.50;99.90;;;;;;5036370;28;20034;-73
2022/12/13 06:13:03;;;;;;;70.88;45.13;;;-4.70;99.90;;;;;;5035950;28;20342;-72
2022/12/13 06:15:28;;;;;;;64.78;45.78;;;-5.40;99.90;;;;;;5035640;28;20080;-73
2022/12/13 06:17:54;;;;;;;72.28;46.92;;;-5.40;99.90;;;;;;5035830;28;20497;-72
2022/12/13 06:20:20;;;;;;;72.60;46.00;;;-5.40;99.90;;;;;;5035905;28;20037;-73
2022/12/13 06:22:46;;;;;;;78.25;45.35;;;-5.40;99.90;;;;;;5035710;28;20107;-73
2022/12/13 06:25:11;;;;;;;71.85;44.72;;;-5.40;99.90;;;;;;5035785;28;20072;-73
2022/12/13 06:27:37;;;;;;;73.07;44.40;;;-5.40;99.90;;;;;;5017870;28;20048;-73
2022/12/13 06:30:03;;;;;;;75.18;48.10;;;-5.40;99.90;;;;;;5035595;28;20044;-73
2022/12/13 06:32:31;;;;;;;69.65;46.53;;;-5.40;99.90;;;;;;5018191;28;20067;-73
2022/12/13 06:34:57;;;;;;;69.80;45.35;;;-5.40;99.90;;;;;;5035872;28;20077;-73
2022/12/13 06:37:23;;;;;;;60.58;42.88;;;-5.40;99.90;;;;;;5018004;28;20076;-73
2022/12/13 06:39:48;;;;;;;69.22;45.80;;;-5.50;99.90;;;;;;5001738;28;20114;-73
2022/12/13 06:42:18;;;;;;;74.43;44.22;;;-5.50;99.90;;;;;;5034809;28;20370;-73
2022/12/13 06:44:43;;;;;;;66.38;44.58;;;-5.50;99.90;;;;;;5035452;28;20047;-73
2022/12/13 06:47:09;;;;;;;68.72;44.08;;;-5.50;99.90;;;;;;5035404;28;20120;-73
2022/12/13 06:49:35;;;;;;;66.68;44.50;;;-5.50;99.90;;;;;;5035757;28;20084;-73
2022/12/13 06:52:01;;;;;;;70.35;44.42;;;-5.50;99.90;;;;;;5035357;28;20048;-73
2022/12/13 06:54:27;;;;;;;68.57;43.70;;;-5.50;99.90;;;;;;5035360;28;20058;-73
2022/12/13 06:56:52;;;;;;;72.85;46.78;;;-5.50;99.90;;;;;;5017198;28;20462;-74
2022/12/13 06:59:18;;;;;;;73.38;44.20;;;-5.50;99.90;;;;;;5035208;28;20065;-73
2022/12/13 07:01:44;;;;;;;70.20;45.50;;;-5.10;99.90;;;;;;5035281;28;20045;-73
2022/12/13 07:04:11;;;;;;;67.53;46.03;;;-5.50;99.90;;;;;;5035369;28;20048;-73
2022/12/13 07:06:37;;;;;;;73.85;48.50;;;-5.40;99.90;;;;;;5034729;28;20041;-73
2022/12/13 07:09:03;;;;;;;81.10;47.15;;;-5.50;99.90;;;;;;5035195;28;20115;-73
2022/12/13 07:11:31;;;;;;;68.25;44.20;;;-5.50;99.90;;;;;;5034655;28;20057;-73
2022/12/13 07:13:58;;;;;;;77.97;47.83;;;-5.50;99.90;;;;;;5035354;28;20042;-73
2022/12/13 07:16:24;;;;;;;71.65;45.60;;;-5.50;99.90;;;;;;5035038;28;20045;-72
2022/12/13 07:18:54;;;;;;;72.85;46.65;;;-5.40;99.90;;;;;;5035279;28;20059;-72
2022/12/13 07:21:20;;;;;;;73.57;48.33;;;-5.40;99.90;;;;;;5017952;28;20053;-73
2022/12/13 07:23:45;;;;;;;82.72;50.33;;;-5.40;99.90;;;;;;5017472;28;20434;-72
2022/12/13 07:26:11;;;;;;;75.80;48.88;;;-5.40;99.90;;;;;;5034785;28;20045;-73
2022/12/13 07:28:37;;;;;;;79.18;49.80;;;-5.40;99.90;;;;;;5001035;28;20053;-73
2022/12/13 07:31:05;;;;;;;77.55;49.72;;;-5.30;99.90;;;;;;5037675;28;20091;-72
2022/12/13 07:33:31;;;;;;;77.88;48.08;;;-4.90;99.90;;;;;;5039004;28;20056;-72
2022/12/13 07:36:11;;;;;;;81.55;50.40;;;-5.30;99.90;;;;;;5038974;28;20057;-72
2022/12/13 07:38:37;;;;;;;81.03;48.08;;;-5.30;99.90;;;;;;5038740;28;20133;-73
2022/12/13 07:41:04;;;;;;;72.20;46.38;;;-5.30;99.90;;;;;;5038142;28;20069;-73
2022/12/13 07:43:31;;;;;;;80.10;49.80;;;-5.30;99.90;;;;;;5021584;28;20477;-73
2022/12/13 07:45:58;;;;;;;81.88;50.13;;;-5.30;99.90;;;;;;5038890;28;20092;-73
2022/12/13 07:48:24;;;;;;;80.40;49.42;;;-5.30;99.90;;;;;;5039386;28;20041;-73
2022/12/13 07:50:50;;;;;;;72.45;48.35;;;-5.30;99.90;;;;;;5038690;28;20060;-73
2022/12/13 07:53:15;;;;;;;82.00;49.30;;;-5.30;99.90;;;;;;5038483;28;20041;-73
2022/12/13 07:55:41;;;;;;;76.45;48.78;;;-4.20;99.90;;;;;;5038374;28;20030;-73
2022/12/13 07:58:10;;;;;;;73.05;48.38;;;-4.30;99.90;;;;;;5038151;28;20056;-73
2022/12/13 08:00:38;;;;;;;73.18;48.90;;;-5.20;99.90;;;;;;5038301;28;20041;-73
2022/12/13 08:03:04;;;;;;;83.20;51.05;;;-5.20;99.90;;;;;;5037827;28;20120;-73
2022/12/13 08:05:30;;;;;;;84.55;49.90;;;-5.20;99.90;;;;;;5020540;28;20085;-72
2022/12/13 08:07:56;;;;;;;85.72;50.03;;;-5.20;99.90;;;;;;5038109;28;20053;-73
2022/12/13 08:10:22;;;;;;;83.40;50.70;;;-5.20;99.90;;;;;;5038352;28;20033;-73
2022/12/13 08:12:48;;;;;;;89.50;52.88;;;-5.10;99.90;;;;;;5038223;28;20131;-72
2022/12/13 08:15:14;;;;;;;89.15;53.97;;;-5.10;99.90;;;;;;5038160;28;20045;-73
2022/12/13 08:17:40;;;;;;;87.57;51.67;;;-5.10;99.90;;;;;;5020733;28;20056;-73
2022/12/13 08:20:07;;;;;;;79.38;50.33;;;-5.00;99.90;;;;;;5038244;28;20049;-73
2022/12/13 08:22:32;;;;;;;83.53;51.47;;;-5.00;99.90;;;;;;5038307;28;20119;-73
2022/12/13 08:24:58;;;;;;;86.82;52.60;;;-5.00;99.90;;;;;;5037944;28;20378;-72
2022/12/13 08:27:26;;;;;;;92.90;54.70;;;-5.00;99.90;;;;;;5037667;28;20052;-72
2022/12/13 08:29:52;;;;;;;90.90;54.55;;;-4.90;99.90;;;;;;5037685;28;20037;-72
2022/12/13 08:32:18;;;;;;;93.07;52.72;;;-4.80;99.90;;;;;;5038045;28;20421;-73
2022/12/13 08:34:44;;;;;;;90.85;53.63;;;-4.80;99.90;;;;;;5037868;28;20499;-73
2022/12/13 08:37:10;;;;;;;90.95;54.05;;;-4.70;99.90;;;;;;5019826;28;20041;-73
2022/12/13 08:39:38;;;;;;;89.18;54.25;;;-4.70;99.90;;;;;;5037636;28;20119;-73
2022/12/13 08:42:12;;;;;;;90.82;54.60;;;-4.70;99.90;;;;;;5037146;28;20077;-73
2022/12/13 08:44:38;;;;;;;86.10;51.45;;;-4.60;99.90;;;;;;5037588;28;20046;-73
2022/12/13 08:47:03;;;;;;;90.28;54.30;;;-4.60;99.90;;;;;;5020027;28;20367;-73
2022/12/13 08:49:29;;;;;;;91.57;56.50;;;-4.50;99.90;;;;;;5037457;28;20045;-73
2022/12/13 08:51:54;;;;;;;91.53;54.90;;;-4.50;99.90;;;;;;5037121;28;20045;-73
2022/12/13 08:54:20;;;;;;;91.43;55.63;;;-4.40;99.90;;;;;;5020289;28;20482;-72
2022/12/13 08:56:46;;;;;;;96.30;56.45;;;-4.40;99.90;;;;;;5036825;28;20052;-73
2022/12/13 08:59:11;;;;;;;96.53;56.85;;;-4.30;99.90;;;;;;5037422;28;20048;-73
2022/12/13 09:01:37;;;;;;;97.07;55.10;;;-4.30;99.90;;;;;;5037249;28;20120;-73
2022/12/13 09:04:02;;;;;;;94.22;56.92;;;-4.20;99.90;;;;;;5037051;28;20042;-73
2022/12/13 09:06:28;;;;;;;98.97;58.90;;;-4.10;99.90;;;;;;5037580;28;20465;-73
2022/12/13 09:08:54;;;;;;;95.25;57.17;;;-4.00;99.90;;;;;;5037047;28;20041;-73
2022/12/13 09:11:20;;;;;;;97.90;58.15;;;-4.00;99.90;;;;;;5036941;28;20049;-73
2022/12/13 09:13:49;;;;;;;97.35;58.08;;;-3.90;99.90;;;;;;5037754;28;20064;-73
2022/12/13 09:16:29;;;;;;;95.85;57.95;;;-3.80;99.90;;;;;;5037133;28;20420;-73
2022/12/13 09:18:54;;;;;;;95.78;57.45;;;-3.80;99.90;;;;;;5036509;28;20145;-73
2022/12/13 09:21:20;;;;;;;96.75;56.10;;;-3.70;99.90;;;;;;5036832;28;20214;-73
2022/12/13 09:23:46;;;;;;;96.38;57.22;;;-2.90;99.90;;;;;;5037201;28;20061;-73
2022/12/13 09:26:15;;;;;;;103.13;57.60;;;-2.80;99.90;;;;;;5036802;28;20077;-73
2022/12/13 09:28:41;;;;;;;103.18;59.47;;;-2.80;99.90;;;;;;5036692;28;20438;-73
2022/12/13 09:31:18;;;;;;;102.00;59.63;;;-3.50;99.90;;;;;;5036716;28;20091;-73
2022/12/13 09:33:44;;;;;;;94.00;56.85;;;-3.50;99.90;;;;;;5036582;28;20488;-73
2022/12/13 09:36:18;;;;;;;98.30;56.75;;;-3.50;99.90;;;;;;5019172;28;20045;-73
2022/12/13 09:38:44;;;;;;;96.97;59.35;;;-3.40;99.90;;;;;;5036656;28;20033;-73
2022/12/13 09:41:30;;;;;;;91.20;55.72;;;-3.40;99.90;;;;;;5036080;28;20060;-73
2022/12/13 09:44:24;;;;;;;86.57;53.80;;;-3.40;99.90;;;;;;5036786;28;20081;-73
2022/12/13 09:46:52;;;;;;;95.43;58.78;;;-3.30;99.90;;;;;;5013277;28;20430;-73
2022/12/13 09:49:40;;;;;;;97.88;57.72;;;-3.30;99.90;;;;;;5035868;28;20362;-73
2022/12/13 09:52:10;;;;;;;93.30;56.92;;;-3.30;99.90;;;;;;5036199;28;20049;-73
2022/12/13 09:54:38;;;;;;;90.07;55.92;;;-3.20;99.90;;;;;;5036053;28;20037;-73
2022/12/13 09:57:16;;;;;;;107.57;61.10;;;-3.20;99.90;;;;;;5015428;28;20050;-73
2022/12/13 09:59:42;;;;;;;90.55;55.72;;;-3.20;99.90;;;;;;5015005;28;20046;-73
2022/12/13 10:02:24;;;;;;;98.85;58.38;;;-3.20;99.90;;;;;;5016383;28;20056;-73
2022/12/13 10:04:51;;;;;;;107.28;59.67;;;-3.10;99.90;;;;;;5015817;28;20454;-73
2022/12/13 10:07:19;;;;;;;98.13;56.83;;;-3.10;99.90;;;;;;5016245;28;20077;-73
2022/12/13 10:09:45;;;;;;;93.00;57.00;;;-3.00;99.90;;;;;;5016289;28;20053;-73
2022/12/13 10:12:14;;;;;;;99.38;56.85;;;-3.00;99.90;;;;;;5016174;28;20049;-73
2022/12/13 10:14:49;;;;;;;102.40;58.70;;;-3.00;99.90;;;;;;5016324;28;20111;-73
2022/12/13 10:17:19;;;;;;;104.65;61.35;;;-2.90;99.90;;;;;;5015625;28;20099;-73
2022/12/13 10:19:50;;;;;;;93.80;58.03;;;-2.90;99.90;;;;;;5015870;28;20103;-73
2022/12/13 10:22:25;;;;;;;104.05;59.75;;;-2.90;99.90;;;;;;5016185;28;20037;-73
2022/12/13 10:25:02;;;;;;;97.07;57.95;;;-2.80;99.90;;;;;;5016035;28;20061;-73
2022/12/13 10:27:39;;;;;;;113.50;63.17;;;-2.80;99.90;;;;;;5016015;28;20054;-73
2022/12/13 10:30:10;;;;;;;106.57;59.70;;;-2.50;99.90;;;;;;5015601;28;20046;-73
2022/12/13 10:32:44;;;;;;;96.43;60.08;;;-2.70;99.90;;;;;;5014994;28;20049;-73
2022/12/13 10:35:29;;;;;;;95.88;60.28;;;-2.60;99.90;;;;;;5011605;28;20088;-73
2022/12/13 10:38:15;;;;;;;95.72;56.88;;;-2.10;99.90;;;;;;5015580;28;20099;-73
2022/12/13 10:40:47;;;;;;;94.50;58.33;;;-2.50;99.90;;;;;;5015933;28;20455;-73
2022/12/13 10:43:19;;;;;;;100.20;60.40;;;-2.50;99.90;;;;;;5015575;28;20119;-73
2022/12/13 10:45:54;;;;;;;90.38;58.33;;;-2.40;99.90;;;;;;5014934;28;20366;-73
2022/12/13 10:48:23;;;;;;;93.30;57.10;;;-2.40;99.90;;;;;;5015608;28;20060;-73
2022/12/13 10:51:09;;;;;;;92.60;56.28;;;-2.40;99.90;;;;;;5015229;28;20124;-73
2022/12/13 10:53:45;;;;;;;79.05;52.47;;;-2.40;99.90;;;;;;5015187;28;20084;-73
2022/12/13 10:56:11;;;;;;;94.20;57.15;;;-2.30;99.90;;;;;;5016231;28;20041;-73
2022/12/13 10:58:42;;;;;;;84.47;54.08;;;-2.30;99.90;;;;;;5017719;28;20045;-73
2022/12/13 11:01:29;;;;;;;89.07;55.42;;;-2.30;99.90;;;;;;5017566;28;20061;-73
2022/12/13 11:04:03;;;;;;;91.88;55.30;;;-2.20;99.90;;;;;;5035085;28;20041;-73
2022/12/13 11:06:46;;;;;;;82.45;52.83;;;-1.90;99.90;;;;;;5035038;28;20041;-73
2022/12/13 11:09:28;;;;;;;91.25;55.20;;;-2.20;99.90;;;;;;5034610;28;20059;-73
2022/12/13 11:11:56;;;;;;;76.88;50.13;;;-2.20;99.90;;;;;;5035016;28;20052;-73
2022/12/13 11:14:31;;;;;;;80.88;53.10;;;-2.10;99.90;;;;;;5017702;28;20057;-73
2022/12/13 11:17:04;;;;;;;81.57;52.97;;;-2.10;99.90;;;;;;5034965;28;20071;-73
2022/12/13 11:19:44;;;;;;;82.68;51.75;;;-2.10;99.90;;;;;;5034855;28;20053;-73
2022/12/13 11:22:22;;;;;;;86.45;52.88;;;-2.10;99.90;;;;;;5035644;28;20361;-73
2022/12/13 11:24:50;;;;;;;84.63;53.50;;;-2.10;99.90;;;;;;5035515;28;20045;-73
2022/12/13 11:27:19;;;;;;;81.05;49.55;;;-1.50;99.90;;;;;;5034997;28;20434;-73
2022/12/13 11:30:07;;;;;;;79.20;50.40;;;-2.00;99.90;;;;;;5034765;28;20049;-73
2022/12/13 11:32:48;;;;;;;83.85;52.25;;;-2.00;99.90;;;;;;5000556;28;20057;-73
2022/12/13 11:35:23;;;;;;;89.65;53.80;;;-2.00;99.90;;;;;;5034792;28;20087;-73
2022/12/13 11:38:21;;;;;;;81.95;53.25;;;-2.00;99.90;;;;;;5034699;28;20064;-73
2022/12/13 11:41:17;;;;;;;76.10;50.17;;;-1.90;99.90;;;;;;5034499;28;20103;-73
2022/12/13 11:44:07;;;;;;;79.35;48.72;;;-1.90;99.90;;;;;;5011482;28;20053;-73
2022/12/13 11:46:52;;;;;;;74.70;50.20;;;-1.60;99.90;;;;;;5003727;28;20076;-73
2022/12/13 11:49:41;;;;;;;78.10;50.58;;;-1.70;99.90;;;;;;5017170;28;20034;-73
2022/12/13 11:52:19;;;;;;;76.07;51.45;;;-1.70;99.90;;;;;;5000938;28;20125;-73
2022/12/13 11:54:59;;;;;;;76.50;51.78;;;-1.50;99.90;;;;;;5034635;28;20121;-73
2022/12/13 11:57:49;;;;;;;73.78;51.25;;;-1.60;99.90;;;;;;5034500;28;20054;-73
2022/12/13 12:00:35;;;;;;;77.25;47.67;;;-1.60;99.90;;;;;;5034582;28;20124;-73
2022/12/13 12:03:19;;;;;;;80.30;50.60;;;-1.60;99.90;;;;;;5034657;28;20096;-73
2022/12/13 12:05:56;;;;;;;68.30;45.90;;;-1.60;99.90;;;;;;5034220;28;20042;-74
2022/12/13 12:08:43;;;;;;;74.38;48.38;;;-1.60;99.90;;;;;;5034299;28;20042;-73
2022/12/13 12:11:20;;;;;;;70.15;47.00;;;-1.50;99.90;;;;;;5034455;28;20119;-73
2022/12/13 12:13:58;;;;;;;75.55;45.92;;;-1.50;99.90;;;;;;5034705;28;20354;-74
2022/12/13 12:16:38;;;;;;;64.90;45.10;;;-1.50;99.90;;;;;;5035811;28;20091;-73
2022/12/13 12:19:15;;;;;;;63.65;44.40;;;-1.50;99.90;;;;;;5038187;28;20045;-73
2022/12/13 12:22:21;;;;;;;71.38;46.17;;;-1.50;99.90;;;;;;5038048;28;20046;-74
2022/12/13 12:24:56;;;;;;;69.85;47.13;;;-1.40;99.90;;;;;;5037974;28;20041;-71
2022/12/13 12:27:39;;;;;;;68.88;45.65;;;-1.40;99.90;;;;;;5037257;28;20122;-71
2022/12/13 12:30:17;;;;;;;68.18;46.90;;;-0.60;99.90;;;;;;5037944;28;20121;-71
2022/12/13 12:33:00;;;;;;;68.07;46.45;;;-1.40;99.90;;;;;;5037670;28;20103;-72
2022/12/13 12:35:28;;;;;;;67.07;43.87;;;-1.40;99.90;;;;;;5038161;28;20096;-73
2022/12/13 12:38:13;;;;;;;58.10;42.47;;;-1.40;99.90;;;;;;5037885;28;20370;-72
2022/12/13 12:41:14;;;;;;;67.35;45.17;;;-1.30;99.90;;;;;;5037543;28;20053;-72
2022/12/13 12:43:42;;;;;;;62.58;45.88;;;-1.30;99.90;;;;;;5037585;28;20067;-72
2022/12/13 12:46:19;;;;;;;66.53;45.53;;;-1.30;99.90;;;;;;5037646;28;20053;-72
2022/12/13 12:49:25;;;;;;;68.80;47.58;;;-1.30;99.90;;;;;;5037017;28;20052;-72